sensor_id;sensor_type;location;lat;lon;timestamp;P1;durP1;ratioP1;P2;durP2;ratioP2
76433;SDS011;65265;53.200;6.080;2023-02-15T00:00:43;32.65;;;19.55;;
76433;SDS011;65265;53.200;6.080;2023-02-15T00:05:35;22.50;;;15.18;;
76433;SDS011;65265;53.200;6.080;2023-02-15T00:10:26;26.45;;;16.63;;
76433;SDS011;65265;53.200;6.080;2023-02-15T00:15:20;24.90;;;15.65;;
76433;SDS011;65265;53.200;6.080;2023-02-15T00:25:04;21.70;;;13.32;;
76433;SDS011;65265;53.200;6.080;2023-02-15T00:29:56;19.88;;;13.10;;
76433;SDS011;65265;53.200;6.080;2023-02-15T00:34:49;18.23;;;12.23;;
76433;SDS011;65265;53.200;6.080;2023-02-15T00:39:42;13.95;;;9.07;;
76433;SDS011;65265;53.200;6.080;2023-02-15T00:44:34;27.05;;;17.38;;
76433;SDS011;65265;53.200;6.080;2023-02-15T00:49:25;22.02;;;15.27;;
76433;SDS011;65265;53.200;6.080;2023-02-15T00:54:19;25.20;;;16.08;;
76433;SDS011;65265;53.200;6.080;2023-02-15T00:59:10;21.90;;;13.77;;
76433;SDS011;65265;53.200;6.080;2023-02-15T01:04:02;26.83;;;16.70;;
76433;SDS011;65265;53.200;6.080;2023-02-15T01:08:54;24.70;;;15.48;;
76433;SDS011;65265;53.200;6.080;2023-02-15T01:13:47;24.23;;;16.25;;
76433;SDS011;65265;53.200;6.080;2023-02-15T01:18:40;25.70;;;16.25;;
76433;SDS011;65265;53.200;6.080;2023-02-15T01:23:32;21.95;;;14.63;;
76433;SDS011;65265;53.200;6.080;2023-02-15T01:28:24;16.42;;;11.70;;
76433;SDS011;65265;53.200;6.080;2023-02-15T01:33:17;21.10;;;13.48;;
76433;SDS011;65265;53.200;6.080;2023-02-15T01:38:08;20.17;;;14.60;;
76433;SDS011;65265;53.200;6.080;2023-02-15T01:43:00;20.02;;;11.77;;
76433;SDS011;65265;53.200;6.080;2023-02-15T01:47:52;21.50;;;15.50;;
76433;SDS011;65265;53.200;6.080;2023-02-15T01:52:50;19.38;;;12.93;;
76433;SDS011;65265;53.200;6.080;2023-02-15T01:57:47;24.10;;;16.90;;
76433;SDS011;65265;53.200;6.080;2023-02-15T02:02:40;19.52;;;12.07;;
76433;SDS011;65265;53.200;6.080;2023-02-15T02:07:34;24.55;;;17.70;;
76433;SDS011;65265;53.200;6.080;2023-02-15T02:12:30;25.23;;;16.85;;
76433;SDS011;65265;53.200;6.080;2023-02-15T02:17:26;23.42;;;17.40;;
76433;SDS011;65265;53.200;6.080;2023-02-15T02:22:39;19.40;;;14.07;;
76433;SDS011;65265;53.200;6.080;2023-02-15T02:28:09;22.98;;;16.70;;
76433;SDS011;65265;53.200;6.080;2023-02-15T02:38:36;15.45;;;10.95;;
76433;SDS011;65265;53.200;6.080;2023-02-15T02:43:40;22.95;;;17.20;;
76433;SDS011;65265;53.200;6.080;2023-02-15T02:53:35;18.00;;;11.73;;
76433;SDS011;65265;53.200;6.080;2023-02-15T02:58:28;21.77;;;13.45;;
76433;SDS011;65265;53.200;6.080;2023-02-15T03:03:26;19.95;;;14.45;;
76433;SDS011;65265;53.200;6.080;2023-02-15T03:08:23;27.35;;;15.20;;
76433;SDS011;65265;53.200;6.080;2023-02-15T03:13:19;16.42;;;10.18;;
76433;SDS011;65265;53.200;6.080;2023-02-15T03:18:11;17.60;;;10.93;;
76433;SDS011;65265;53.200;6.080;2023-02-15T03:23:03;16.60;;;12.70;;
76433;SDS011;65265;53.200;6.080;2023-02-15T03:28:05;16.52;;;10.57;;
76433;SDS011;65265;53.200;6.080;2023-02-15T03:32:59;20.60;;;12.65;;
76433;SDS011;65265;53.200;6.080;2023-02-15T03:37:55;22.10;;;13.90;;
76433;SDS011;65265;53.200;6.080;2023-02-15T03:42:51;22.38;;;12.10;;
76433;SDS011;65265;53.200;6.080;2023-02-15T03:47:53;17.65;;;11.25;;
76433;SDS011;65265;53.200;6.080;2023-02-15T03:52:47;18.08;;;11.05;;
76433;SDS011;65265;53.200;6.080;2023-02-15T03:57:39;19.75;;;13.52;;
76433;SDS011;65265;53.200;6.080;2023-02-15T04:02:55;27.08;;;17.25;;
76433;SDS011;65265;53.200;6.080;2023-02-15T04:08:02;24.50;;;14.88;;
76433;SDS011;65265;53.200;6.080;2023-02-15T04:12:53;32.45;;;19.13;;
76433;SDS011;65265;53.200;6.080;2023-02-15T04:17:45;18.38;;;12.07;;
76433;SDS011;65265;53.200;6.080;2023-02-15T04:22:46;25.42;;;15.80;;
76433;SDS011;65265;53.200;6.080;2023-02-15T04:27:56;24.90;;;16.45;;
76433;SDS011;65265;53.200;6.080;2023-02-15T04:32:47;26.02;;;15.43;;
76433;SDS011;65265;53.200;6.080;2023-02-15T04:37:40;28.98;;;16.77;;
76433;SDS011;65265;53.200;6.080;2023-02-15T04:42:33;30.30;;;17.35;;
76433;SDS011;65265;53.200;6.080;2023-02-15T04:47:24;36.42;;;21.88;;
76433;SDS011;65265;53.200;6.080;2023-02-15T04:52:16;40.47;;;22.50;;
76433;SDS011;65265;53.200;6.080;2023-02-15T04:57:09;38.13;;;23.35;;
76433;SDS011;65265;53.200;6.080;2023-02-15T05:02:01;37.35;;;21.85;;
76433;SDS011;65265;53.200;6.080;2023-02-15T05:06:53;48.25;;;22.33;;
76433;SDS011;65265;53.200;6.080;2023-02-15T05:11:44;43.60;;;25.75;;
76433;SDS011;65265;53.200;6.080;2023-02-15T05:16:37;42.05;;;24.75;;
76433;SDS011;65265;53.200;6.080;2023-02-15T05:21:29;43.58;;;22.63;;
76433;SDS011;65265;53.200;6.080;2023-02-15T05:26:22;48.97;;;25.30;;
76433;SDS011;65265;53.200;6.080;2023-02-15T05:31:32;40.03;;;23.83;;
76433;SDS011;65265;53.200;6.080;2023-02-15T05:36:26;45.50;;;24.40;;
76433;SDS011;65265;53.200;6.080;2023-02-15T05:41:18;47.08;;;23.60;;
76433;SDS011;65265;53.200;6.080;2023-02-15T05:46:10;42.00;;;22.67;;
76433;SDS011;65265;53.200;6.080;2023-02-15T05:51:03;42.60;;;23.15;;
76433;SDS011;65265;53.200;6.080;2023-02-15T05:56:00;45.88;;;24.30;;
76433;SDS011;65265;53.200;6.080;2023-02-15T06:00:52;40.78;;;22.73;;
76433;SDS011;65265;53.200;6.080;2023-02-15T06:05:44;45.60;;;23.27;;
76433;SDS011;65265;53.200;6.080;2023-02-15T06:10:36;47.05;;;24.90;;
76433;SDS011;65265;53.200;6.080;2023-02-15T06:15:30;43.58;;;22.02;;
76433;SDS011;65265;53.200;6.080;2023-02-15T06:20:23;54.67;;;30.00;;
76433;SDS011;65265;53.200;6.080;2023-02-15T06:25:14;61.83;;;30.27;;
76433;SDS011;65265;53.200;6.080;2023-02-15T06:30:07;59.67;;;28.13;;
76433;SDS011;65265;53.200;6.080;2023-02-15T06:35:00;53.67;;;27.20;;
76433;SDS011;65265;53.200;6.080;2023-02-15T06:39:52;47.90;;;24.45;;
76433;SDS011;65265;53.200;6.080;2023-02-15T06:44:44;48.83;;;23.83;;
76433;SDS011;65265;53.200;6.080;2023-02-15T06:49:35;61.20;;;28.75;;
76433;SDS011;65265;53.200;6.080;2023-02-15T06:54:28;50.58;;;24.90;;
76433;SDS011;65265;53.200;6.080;2023-02-15T06:59:20;44.17;;;21.80;;
76433;SDS011;65265;53.200;6.080;2023-02-15T07:04:12;48.10;;;23.40;;
76433;SDS011;65265;53.200;6.080;2023-02-15T07:09:03;53.58;;;25.25;;
76433;SDS011;65265;53.200;6.080;2023-02-15T07:13:57;45.80;;;22.42;;
76433;SDS011;65265;53.200;6.080;2023-02-15T07:18:48;53.85;;;24.17;;
76433;SDS011;65265;53.200;6.080;2023-02-15T07:23:40;51.60;;;24.98;;
76433;SDS011;65265;53.200;6.080;2023-02-15T07:28:32;58.90;;;24.75;;
76433;SDS011;65265;53.200;6.080;2023-02-15T07:33:25;54.20;;;27.95;;
76433;SDS011;65265;53.200;6.080;2023-02-15T07:38:18;56.92;;;29.02;;
76433;SDS011;65265;53.200;6.080;2023-02-15T07:43:11;59.40;;;26.65;;
76433;SDS011;65265;53.200;6.080;2023-02-15T07:48:03;64.40;;;29.98;;
76433;SDS011;65265;53.200;6.080;2023-02-15T07:52:56;54.92;;;26.83;;
76433;SDS011;65265;53.200;6.080;2023-02-15T07:57:48;51.45;;;26.13;;
76433;SDS011;65265;53.200;6.080;2023-02-15T08:02:41;66.13;;;30.80;;
76433;SDS011;65265;53.200;6.080;2023-02-15T08:07:33;59.33;;;30.00;;
76433;SDS011;65265;53.200;6.080;2023-02-15T08:12:26;68.70;;;33.72;;
76433;SDS011;65265;53.200;6.080;2023-02-15T08:17:18;72.13;;;32.28;;
76433;SDS011;65265;53.200;6.080;2023-02-15T08:22:10;67.25;;;34.92;;
76433;SDS011;65265;53.200;6.080;2023-02-15T08:27:04;70.85;;;34.00;;
76433;SDS011;65265;53.200;6.080;2023-02-15T08:31:59;68.90;;;31.48;;
76433;SDS011;65265;53.200;6.080;2023-02-15T08:36:52;71.80;;;33.42;;
76433;SDS011;65265;53.200;6.080;2023-02-15T08:41:44;56.55;;;28.55;;
76433;SDS011;65265;53.200;6.080;2023-02-15T08:46:38;50.13;;;26.75;;
76433;SDS011;65265;53.200;6.080;2023-02-15T08:51:33;45.72;;;24.23;;
76433;SDS011;65265;53.200;6.080;2023-02-15T08:56:27;47.45;;;25.35;;
76433;SDS011;65265;53.200;6.080;2023-02-15T09:01:19;52.13;;;24.52;;
76433;SDS011;65265;53.200;6.080;2023-02-15T09:06:13;55.05;;;26.55;;
76433;SDS011;65265;53.200;6.080;2023-02-15T09:11:08;47.30;;;27.42;;
76433;SDS011;65265;53.200;6.080;2023-02-15T09:16:01;48.30;;;27.70;;
76433;SDS011;65265;53.200;6.080;2023-02-15T09:20:53;50.58;;;24.42;;
76433;SDS011;65265;53.200;6.080;2023-02-15T09:25:45;48.08;;;27.10;;
76433;SDS011;65265;53.200;6.080;2023-02-15T09:30:38;42.97;;;22.98;;
76433;SDS011;65265;53.200;6.080;2023-02-15T09:35:30;46.00;;;23.73;;
76433;SDS011;65265;53.200;6.080;2023-02-15T09:40:21;42.70;;;22.25;;
76433;SDS011;65265;53.200;6.080;2023-02-15T09:45:16;45.40;;;23.52;;
76433;SDS011;65265;53.200;6.080;2023-02-15T09:55:35;42.33;;;21.13;;
76433;SDS011;65265;53.200;6.080;2023-02-15T10:00:39;39.70;;;22.15;;
76433;SDS011;65265;53.200;6.080;2023-02-15T10:05:45;39.92;;;20.27;;
76433;SDS011;65265;53.200;6.080;2023-02-15T10:10:45;43.30;;;20.38;;
76433;SDS011;65265;53.200;6.080;2023-02-15T10:15:47;42.78;;;22.95;;
76433;SDS011;65265;53.200;6.080;2023-02-15T10:20:52;48.70;;;24.33;;
76433;SDS011;65265;53.200;6.080;2023-02-15T10:25:50;50.78;;;24.83;;
76433;SDS011;65265;53.200;6.080;2023-02-15T10:30:50;57.03;;;26.13;;
76433;SDS011;65265;53.200;6.080;2023-02-15T10:35:47;49.03;;;23.73;;
76433;SDS011;65265;53.200;6.080;2023-02-15T10:40:55;47.08;;;23.95;;
76433;SDS011;65265;53.200;6.080;2023-02-15T10:46:00;48.20;;;22.90;;
76433;SDS011;65265;53.200;6.080;2023-02-15T10:51:01;50.70;;;24.98;;
76433;SDS011;65265;53.200;6.080;2023-02-15T10:55:55;51.40;;;25.88;;
76433;SDS011;65265;53.200;6.080;2023-02-15T11:00:54;40.67;;;21.92;;
76433;SDS011;65265;53.200;6.080;2023-02-15T11:05:57;38.95;;;21.33;;
76433;SDS011;65265;53.200;6.080;2023-02-15T11:10:54;37.05;;;20.60;;
76433;SDS011;65265;53.200;6.080;2023-02-15T11:15:52;47.88;;;22.13;;
76433;SDS011;65265;53.200;6.080;2023-02-15T11:20:50;40.67;;;19.35;;
76433;SDS011;65265;53.200;6.080;2023-02-15T11:25:53;38.88;;;18.48;;
76433;SDS011;65265;53.200;6.080;2023-02-15T11:30:51;39.05;;;19.08;;
76433;SDS011;65265;53.200;6.080;2023-02-15T11:35:48;40.47;;;20.60;;
76433;SDS011;65265;53.200;6.080;2023-02-15T11:40:46;41.92;;;19.90;;
76433;SDS011;65265;53.200;6.080;2023-02-15T11:45:40;40.47;;;19.98;;
76433;SDS011;65265;53.200;6.080;2023-02-15T11:50:34;42.28;;;19.65;;
76433;SDS011;65265;53.200;6.080;2023-02-15T11:55:25;45.28;;;22.05;;
76433;SDS011;65265;53.200;6.080;2023-02-15T12:00:23;39.95;;;20.52;;
76433;SDS011;65265;53.200;6.080;2023-02-15T12:05:25;36.92;;;20.02;;
76433;SDS011;65265;53.200;6.080;2023-02-15T12:10:19;44.03;;;22.67;;
76433;SDS011;65265;53.200;6.080;2023-02-15T12:15:14;49.25;;;23.15;;
76433;SDS011;65265;53.200;6.080;2023-02-15T12:20:25;45.35;;;22.90;;
76433;SDS011;65265;53.200;6.080;2023-02-15T12:25:22;44.45;;;23.05;;
76433;SDS011;65265;53.200;6.080;2023-02-15T12:30:18;40.92;;;21.35;;
76433;SDS011;65265;53.200;6.080;2023-02-15T12:35:15;34.92;;;18.20;;
76433;SDS011;65265;53.200;6.080;2023-02-15T12:40:19;40.60;;;18.90;;
76433;SDS011;65265;53.200;6.080;2023-02-15T12:45:23;40.70;;;20.30;;
76433;SDS011;65265;53.200;6.080;2023-02-15T12:50:22;34.97;;;17.13;;
76433;SDS011;65265;53.200;6.080;2023-02-15T12:55:19;35.88;;;17.42;;
76433;SDS011;65265;53.200;6.080;2023-02-15T13:05:25;31.25;;;15.82;;
76433;SDS011;65265;53.200;6.080;2023-02-15T13:10:22;27.63;;;16.15;;
76433;SDS011;65265;53.200;6.080;2023-02-15T13:15:22;33.47;;;16.08;;
76433;SDS011;65265;53.200;6.080;2023-02-15T13:20:18;28.98;;;14.13;;
76433;SDS011;65265;53.200;6.080;2023-02-15T13:25:16;32.35;;;14.88;;
76433;SDS011;65265;53.200;6.080;2023-02-15T13:30:15;32.10;;;17.20;;
76433;SDS011;65265;53.200;6.080;2023-02-15T13:35:16;30.80;;;16.00;;
76433;SDS011;65265;53.200;6.080;2023-02-15T13:45:10;31.48;;;17.95;;
76433;SDS011;65265;53.200;6.080;2023-02-15T13:50:30;37.88;;;19.23;;
76433;SDS011;65265;53.200;6.080;2023-02-15T13:55:36;38.60;;;17.95;;
76433;SDS011;65265;53.200;6.080;2023-02-15T14:00:34;32.47;;;17.20;;
76433;SDS011;65265;53.200;6.080;2023-02-15T14:05:36;33.80;;;17.58;;
76433;SDS011;65265;53.200;6.080;2023-02-15T14:10:54;39.78;;;19.63;;
76433;SDS011;65265;53.200;6.080;2023-02-15T14:15:52;36.53;;;18.52;;
76433;SDS011;65265;53.200;6.080;2023-02-15T14:20:53;36.72;;;19.20;;
76433;SDS011;65265;53.200;6.080;2023-02-15T14:30:49;34.88;;;15.82;;
76433;SDS011;65265;53.200;6.080;2023-02-15T14:35:43;35.38;;;17.77;;
76433;SDS011;65265;53.200;6.080;2023-02-15T14:40:38;36.28;;;18.92;;
76433;SDS011;65265;53.200;6.080;2023-02-15T14:45:55;37.25;;;18.63;;
76433;SDS011;65265;53.200;6.080;2023-02-15T14:50:52;28.60;;;17.65;;
76433;SDS011;65265;53.200;6.080;2023-02-15T14:55:43;31.55;;;18.65;;
76433;SDS011;65265;53.200;6.080;2023-02-15T15:00:36;37.25;;;19.90;;
76433;SDS011;65265;53.200;6.080;2023-02-15T15:05:33;35.10;;;17.85;;
76433;SDS011;65265;53.200;6.080;2023-02-15T15:10:37;32.13;;;16.05;;
76433;SDS011;65265;53.200;6.080;2023-02-15T15:15:34;28.70;;;15.25;;
76433;SDS011;65265;53.200;6.080;2023-02-15T15:20:39;35.22;;;17.08;;
76433;SDS011;65265;53.200;6.080;2023-02-15T15:25:41;31.40;;;15.32;;
76433;SDS011;65265;53.200;6.080;2023-02-15T15:36:00;33.42;;;16.73;;
76433;SDS011;65265;53.200;6.080;2023-02-15T15:41:16;32.58;;;14.57;;
76433;SDS011;65265;53.200;6.080;2023-02-15T15:51:48;29.75;;;16.45;;
76433;SDS011;65265;53.200;6.080;2023-02-15T15:56:40;31.58;;;18.33;;
76433;SDS011;65265;53.200;6.080;2023-02-15T16:01:37;37.95;;;18.38;;
76433;SDS011;65265;53.200;6.080;2023-02-15T16:06:33;38.95;;;19.70;;
76433;SDS011;65265;53.200;6.080;2023-02-15T16:11:29;34.33;;;16.75;;
76433;SDS011;65265;53.200;6.080;2023-02-15T16:16:23;36.17;;;17.45;;
76433;SDS011;65265;53.200;6.080;2023-02-15T16:21:18;34.45;;;17.65;;
76433;SDS011;65265;53.200;6.080;2023-02-15T16:26:13;32.33;;;16.50;;
76433;SDS011;65265;53.200;6.080;2023-02-15T16:31:16;36.88;;;19.77;;
76433;SDS011;65265;53.200;6.080;2023-02-15T16:36:10;33.67;;;16.48;;
76433;SDS011;65265;53.200;6.080;2023-02-15T16:41:02;35.92;;;17.90;;
76433;SDS011;65265;53.200;6.080;2023-02-15T16:45:56;33.50;;;17.50;;
76433;SDS011;65265;53.200;6.080;2023-02-15T16:50:56;36.08;;;17.20;;
76433;SDS011;65265;53.200;6.080;2023-02-15T16:55:50;36.92;;;18.90;;
76433;SDS011;65265;53.200;6.080;2023-02-15T17:00:45;36.38;;;19.13;;
76433;SDS011;65265;53.200;6.080;2023-02-15T17:05:40;39.15;;;19.48;;
76433;SDS011;65265;53.200;6.080;2023-02-15T17:10:35;39.35;;;20.90;;
76433;SDS011;65265;53.200;6.080;2023-02-15T17:15:32;38.83;;;19.98;;
76433;SDS011;65265;53.200;6.080;2023-02-15T17:20:24;35.30;;;18.08;;
76433;SDS011;65265;53.200;6.080;2023-02-15T17:25:18;35.03;;;18.52;;
76433;SDS011;65265;53.200;6.080;2023-02-15T17:30:15;44.35;;;20.02;;
76433;SDS011;65265;53.200;6.080;2023-02-15T17:35:16;34.90;;;18.25;;
76433;SDS011;65265;53.200;6.080;2023-02-15T17:40:14;34.35;;;19.50;;
76433;SDS011;65265;53.200;6.080;2023-02-15T17:45:10;34.40;;;18.48;;
76433;SDS011;65265;53.200;6.080;2023-02-15T17:50:04;38.05;;;20.50;;
76433;SDS011;65265;53.200;6.080;2023-02-15T17:54:56;37.92;;;22.55;;
76433;SDS011;65265;53.200;6.080;2023-02-15T18:00:06;40.70;;;22.45;;
76433;SDS011;65265;53.200;6.080;2023-02-15T18:05:18;41.70;;;20.35;;
76433;SDS011;65265;53.200;6.080;2023-02-15T18:10:27;42.67;;;21.60;;
76433;SDS011;65265;53.200;6.080;2023-02-15T18:15:35;38.47;;;19.70;;
76433;SDS011;65265;53.200;6.080;2023-02-15T18:20:30;41.95;;;22.73;;
76433;SDS011;65265;53.200;6.080;2023-02-15T18:25:25;40.28;;;21.33;;
76433;SDS011;65265;53.200;6.080;2023-02-15T18:30:18;46.30;;;24.05;;
76433;SDS011;65265;53.200;6.080;2023-02-15T18:35:12;42.83;;;24.98;;
76433;SDS011;65265;53.200;6.080;2023-02-15T18:40:12;44.55;;;22.85;;
76433;SDS011;65265;53.200;6.080;2023-02-15T18:45:06;34.58;;;19.52;;
76433;SDS011;65265;53.200;6.080;2023-02-15T18:50:05;39.65;;;21.67;;
76433;SDS011;65265;53.200;6.080;2023-02-15T18:54:58;38.67;;;20.17;;
76433;SDS011;65265;53.200;6.080;2023-02-15T18:59:52;41.83;;;21.83;;
76433;SDS011;65265;53.200;6.080;2023-02-15T19:04:44;47.10;;;23.15;;
76433;SDS011;65265;53.200;6.080;2023-02-15T19:09:37;45.85;;;24.83;;
76433;SDS011;65265;53.200;6.080;2023-02-15T19:14:30;42.25;;;23.92;;
76433;SDS011;65265;53.200;6.080;2023-02-15T19:19:24;35.58;;;22.30;;
76433;SDS011;65265;53.200;6.080;2023-02-15T19:24:17;55.90;;;28.20;;
76433;SDS011;65265;53.200;6.080;2023-02-15T19:29:12;53.67;;;27.55;;
76433;SDS011;65265;53.200;6.080;2023-02-15T19:34:10;51.75;;;25.70;;
76433;SDS011;65265;53.200;6.080;2023-02-15T19:39:04;42.13;;;23.40;;
76433;SDS011;65265;53.200;6.080;2023-02-15T19:43:56;56.53;;;27.85;;
76433;SDS011;65265;53.200;6.080;2023-02-15T19:48:49;52.83;;;24.75;;
76433;SDS011;65265;53.200;6.080;2023-02-15T19:53:40;45.92;;;25.30;;
76433;SDS011;65265;53.200;6.080;2023-02-15T19:58:34;52.22;;;28.30;;
76433;SDS011;65265;53.200;6.080;2023-02-15T20:03:25;49.78;;;25.77;;
76433;SDS011;65265;53.200;6.080;2023-02-15T20:08:17;49.25;;;26.67;;
76433;SDS011;65265;53.200;6.080;2023-02-15T20:13:12;53.15;;;27.65;;
76433;SDS011;65265;53.200;6.080;2023-02-15T20:18:07;47.13;;;24.27;;
76433;SDS011;65265;53.200;6.080;2023-02-15T20:22:59;49.95;;;24.85;;
76433;SDS011;65265;53.200;6.080;2023-02-15T20:27:51;48.20;;;25.02;;
76433;SDS011;65265;53.200;6.080;2023-02-15T20:32:43;49.00;;;25.10;;
76433;SDS011;65265;53.200;6.080;2023-02-15T20:37:36;50.97;;;27.65;;
76433;SDS011;65265;53.200;6.080;2023-02-15T20:42:28;45.67;;;23.23;;
76433;SDS011;65265;53.200;6.080;2023-02-15T20:47:19;46.30;;;25.95;;
76433;SDS011;65265;53.200;6.080;2023-02-15T20:52:15;50.15;;;27.45;;
76433;SDS011;65265;53.200;6.080;2023-02-15T20:57:11;48.83;;;25.30;;
76433;SDS011;65265;53.200;6.080;2023-02-15T21:02:13;52.88;;;27.30;;
76433;SDS011;65265;53.200;6.080;2023-02-15T21:07:08;54.38;;;27.58;;
76433;SDS011;65265;53.200;6.080;2023-02-15T21:12:04;46.75;;;25.42;;
76433;SDS011;65265;53.200;6.080;2023-02-15T21:17:02;52.05;;;26.23;;
76433;SDS011;65265;53.200;6.080;2023-02-15T21:26:46;47.08;;;25.67;;
76433;SDS011;65265;53.200;6.080;2023-02-15T21:31:38;50.25;;;28.75;;
76433;SDS011;65265;53.200;6.080;2023-02-15T21:36:31;51.50;;;27.75;;
76433;SDS011;65265;53.200;6.080;2023-02-15T21:41:23;47.58;;;26.50;;
76433;SDS011;65265;53.200;6.080;2023-02-15T21:46:32;48.22;;;25.77;;
76433;SDS011;65265;53.200;6.080;2023-02-15T21:51:43;50.63;;;27.50;;
76433;SDS011;65265;53.200;6.080;2023-02-15T21:56:53;44.05;;;24.35;;
76433;SDS011;65265;53.200;6.080;2023-02-15T22:01:47;47.20;;;24.38;;
76433;SDS011;65265;53.200;6.080;2023-02-15T22:06:40;51.97;;;28.48;;
76433;SDS011;65265;53.200;6.080;2023-02-15T22:11:33;53.95;;;28.65;;
76433;SDS011;65265;53.200;6.080;2023-02-15T22:16:25;45.78;;;25.52;;
76433;SDS011;65265;53.200;6.080;2023-02-15T22:21:16;50.92;;;25.83;;
76433;SDS011;65265;53.200;6.080;2023-02-15T22:26:10;53.42;;;28.25;;
76433;SDS011;65265;53.200;6.080;2023-02-15T22:31:10;44.42;;;23.45;;
76433;SDS011;65265;53.200;6.080;2023-02-15T22:36:04;47.83;;;25.95;;
76433;SDS011;65265;53.200;6.080;2023-02-15T22:40:57;53.92;;;27.30;;
76433;SDS011;65265;53.200;6.080;2023-02-15T22:45:53;59.28;;;27.70;;
76433;SDS011;65265;53.200;6.080;2023-02-15T22:50:49;51.70;;;26.98;;
76433;SDS011;65265;53.200;6.080;2023-02-15T22:55:41;51.05;;;25.90;;
76433;SDS011;65265;53.200;6.080;2023-02-15T23:00:34;48.40;;;24.20;;
76433;SDS011;65265;53.200;6.080;2023-02-15T23:05:29;47.22;;;24.13;;
76433;SDS011;65265;53.200;6.080;2023-02-15T23:10:23;49.40;;;25.75;;
76433;SDS011;65265;53.200;6.080;2023-02-15T23:15:16;51.25;;;26.88;;
76433;SDS011;65265;53.200;6.080;2023-02-15T23:20:08;51.70;;;26.02;;
76433;SDS011;65265;53.200;6.080;2023-02-15T23:25:07;46.75;;;25.92;;
76433;SDS011;65265;53.200;6.080;2023-02-15T23:30:03;43.75;;;23.52;;
76433;SDS011;65265;53.200;6.080;2023-02-15T23:34:56;52.05;;;26.63;;
76433;SDS011;65265;53.200;6.080;2023-02-15T23:39:47;48.03;;;24.92;;
76433;SDS011;65265;53.200;6.080;2023-02-15T23:44:57;50.60;;;25.48;;
76433;SDS011;65265;53.200;6.080;2023-02-15T23:49:49;57.83;;;29.45;;
76433;SDS011;65265;53.200;6.080;2023-02-15T23:54:41;47.28;;;25.40;;
76433;SDS011;65265;53.200;6.080;2023-02-15T23:59:32;58.63;;;28.75;;
